Terminal Aerodrome Forecast
Issued by NWS

Home | Current Version | Previous Version | Text Only | Print | Product List | Glossary Off
Versions: 1 2 3 4 5 6 7 8 9 10 11 12 13 14 15 16 17 18 19 20 21 22

155
FTUS43 KMPX 231737
TAFRWF
TAF
KRWF 231737Z 2318/2418 16012KT P6SM BKN070 OVC100
     FM231900 16012KT P6SM SCT070
     FM240100 15008KT P6SM SCT250
     FM241600 18014G22KT P6SM SCT250=

USA.gov is the U.S. government's official web portal to all federal, state and local government web resources and services.